Time;durP1;ratioP1;P1;durP2;ratioP2;P2;SDS_P1;SDS_P2;PMS_P1;PMS_P2;Temp;Humidity;BMP_temperature;BMP_pressure;BME280_temperature;BME280_humidity;BME280_pressure;Samples;Min_cycle;Max_cycle;Signal;HPM_P1;HPM_P2
2022/10/18 00:00:51;;;;;;;52.87;37.03;;;17.00;87.30;;;;;;5006483;28;20216;-68
2022/10/18 00:03:18;;;;;;;55.30;37.33;;;17.00;86.90;;;;;;5002426;28;20229;-68
2022/10/18 00:05:46;;;;;;;48.67;35.13;;;17.00;87.10;;;;;;5033103;28;20200;-68
2022/10/18 00:08:14;;;;;;;50.90;36.47;;;16.90;87.00;;;;;;5001997;28;20208;-68
2022/10/18 00:10:41;;;;;;;51.17;35.23;;;16.90;87.00;;;;;;5003020;28;20259;-68
2022/10/18 00:13:08;;;;;;;50.07;35.77;;;16.90;87.30;;;;;;5002946;28;20209;-68
2022/10/18 00:15:35;;;;;;;57.57;36.97;;;16.90;87.30;;;;;;5010210;28;20211;-68
2022/10/18 00:18:03;;;;;;;56.33;36.20;;;16.90;87.40;;;;;;5008560;28;20208;-68
2022/10/18 00:20:30;;;;;;;56.60;38.73;;;16.90;87.40;;;;;;5006372;28;20236;-68
2022/10/18 00:22:57;;;;;;;54.37;36.77;;;16.80;87.40;;;;;;5006636;28;20224;-68
2022/10/18 00:25:24;;;;;;;50.23;37.40;;;16.80;87.60;;;;;;5004794;28;20541;-68
2022/10/18 00:27:51;;;;;;;54.57;35.50;;;16.80;87.80;;;;;;5002903;28;20200;-68
2022/10/18 00:30:18;;;;;;;51.13;36.00;;;16.80;87.90;;;;;;5006523;28;20264;-68
2022/10/18 00:32:45;;;;;;;46.77;35.27;;;16.70;87.90;;;;;;5012589;28;20207;-68
2022/10/18 00:35:12;;;;;;;56.33;37.53;;;16.70;88.00;;;;;;5007635;28;20288;-68
2022/10/18 00:37:39;;;;;;;52.17;33.87;;;16.70;88.10;;;;;;5002890;28;20297;-68
2022/10/18 00:40:07;;;;;;;49.03;34.80;;;16.80;88.20;;;;;;5005265;28;20648;-68
2022/10/18 00:42:37;;;;;;;47.03;34.30;;;16.70;88.10;;;;;;5003326;28;20267;-68
2022/10/18 00:45:18;;;;;;;52.87;35.97;;;16.70;88.10;;;;;;5005131;28;20213;-68
2022/10/18 00:47:53;;;;;;;49.13;34.53;;;16.70;88.00;;;;;;5005466;28;20189;-68
2022/10/18 00:50:21;;;;;;;50.43;34.60;;;16.70;88.00;;;;;;5020272;28;20226;-68
2022/10/18 00:52:52;;;;;;;47.50;33.13;;;16.60;88.00;;;;;;5004075;28;20265;-68
2022/10/18 00:55:20;;;;;;;44.30;32.40;;;16.60;88.10;;;;;;5003112;28;20262;-68
2022/10/18 00:57:48;;;;;;;43.13;30.33;;;16.50;88.00;;;;;;5003600;28;20263;-68
2022/10/18 01:00:16;;;;;;;47.00;32.70;;;16.50;88.00;;;;;;5005632;28;20200;-68
2022/10/18 01:02:44;;;;;;;48.17;32.03;;;16.50;88.10;;;;;;5008142;28;20235;-68
2022/10/18 01:05:25;;;;;;;43.87;32.20;;;16.50;88.00;;;;;;5002678;28;20196;-68
2022/10/18 01:08:07;;;;;;;40.53;30.30;;;16.40;88.00;;;;;;5004125;28;20219;-68
2022/10/18 01:10:52;;;;;;;41.17;31.70;;;16.40;88.00;;;;;;5002900;28;20641;-68
2022/10/18 01:13:37;;;;;;;41.23;30.47;;;16.40;88.00;;;;;;5003685;28;20201;-68
2022/10/18 01:16:34;;;;;;;49.93;31.80;;;16.40;88.00;;;;;;5004715;28;20208;-68
2022/10/18 01:19:38;;;;;;;42.33;32.20;;;16.40;88.00;;;;;;5004059;28;20220;-68
2022/10/18 01:22:47;;;;;;;46.03;31.83;;;16.30;87.90;;;;;;5005096;28;20542;-68
2022/10/18 01:25:48;;;;;;;49.60;32.03;;;16.30;87.90;;;;;;5013533;28;20208;-68
2022/10/18 01:28:41;;;;;;;41.47;31.40;;;16.30;88.00;;;;;;4999975;28;20197;-68
2022/10/18 01:31:15;;;;;;;45.33;31.87;;;16.30;88.10;;;;;;5002826;28;20729;-68
2022/10/18 01:33:50;;;;;;;38.37;29.67;;;16.20;88.10;;;;;;5006016;28;20210;-69
2022/10/18 01:36:22;;;;;;;42.50;30.17;;;16.20;88.30;;;;;;5002404;28;20223;-68
2022/10/18 01:38:54;;;;;;;47.60;30.97;;;16.20;88.40;;;;;;5002615;28;20210;-68
2022/10/18 01:41:24;;;;;;;44.57;31.20;;;16.20;88.40;;;;;;5004439;28;20223;-68
2022/10/18 01:43:58;;;;;;;42.57;31.33;;;16.20;88.60;;;;;;5007874;28;20226;-68
2022/10/18 01:46:26;;;;;;;44.13;29.23;;;16.20;88.70;;;;;;5005482;28;20265;-68
2022/10/18 01:48:55;;;;;;;42.00;31.63;;;16.10;88.60;;;;;;5003826;28;20250;-68
2022/10/18 01:51:27;;;;;;;43.50;31.00;;;16.20;88.70;;;;;;5001329;28;20215;-68
2022/10/18 01:53:54;;;;;;;42.23;30.37;;;16.20;88.80;;;;;;5004669;28;20680;-68
2022/10/18 01:56:29;;;;;;;41.23;28.20;;;16.10;88.90;;;;;;5003272;28;20263;-68
2022/10/18 01:59:01;;;;;;;34.13;27.40;;;16.10;89.00;;;;;;5003389;28;20553;-68
2022/10/18 02:01:40;;;;;;;40.73;28.43;;;16.10;89.00;;;;;;5005229;28;20222;-68
2022/10/18 02:04:22;;;;;;;41.43;26.27;;;16.10;89.00;;;;;;5004001;28;20277;-68
2022/10/18 02:06:56;;;;;;;36.77;27.80;;;16.10;88.90;;;;;;5001676;28;20235;-68
2022/10/18 02:09:39;;;;;;;38.63;28.67;;;16.10;88.90;;;;;;5004297;28;20198;-68
2022/10/18 02:12:11;;;;;;;42.70;30.20;;;16.00;88.90;;;;;;5003963;28;20226;-68
2022/10/18 02:14:40;;;;;;;33.33;26.53;;;16.10;88.90;;;;;;5004274;28;20279;-68
2022/10/18 02:17:11;;;;;;;38.63;27.67;;;16.10;89.50;;;;;;5006467;28;20591;-68
2022/10/18 02:19:52;;;;;;;43.63;29.03;;;16.10;88.90;;;;;;5001603;28;20268;-68
2022/10/18 02:22:22;;;;;;;40.80;28.90;;;16.10;88.90;;;;;;5000839;28;20584;-68
2022/10/18 02:24:53;;;;;;;42.53;32.67;;;16.00;88.90;;;;;;4997232;28;20270;-68
2022/10/18 02:27:21;;;;;;;45.00;32.57;;;16.00;89.00;;;;;;4999991;28;20197;-68
2022/10/18 02:29:49;;;;;;;46.93;32.83;;;16.00;89.00;;;;;;5001161;28;20211;-68
2022/10/18 02:32:33;;;;;;;50.40;32.43;;;16.00;89.20;;;;;;5005648;28;20207;-68
2022/10/18 02:35:03;;;;;;;47.87;33.27;;;16.00;89.30;;;;;;5001930;28;20231;-68
2022/10/18 02:37:34;;;;;;;42.90;32.13;;;16.00;89.30;;;;;;5001105;28;20637;-68
2022/10/18 02:40:03;;;;;;;46.73;32.70;;;16.00;89.30;;;;;;5000153;28;20237;-68
2022/10/18 02:42:40;;;;;;;42.90;31.97;;;16.00;89.30;;;;;;5005088;28;20207;-68
2022/10/18 02:45:07;;;;;;;41.80;30.67;;;16.00;89.40;;;;;;5000273;28;20247;-68
2022/10/18 02:47:34;;;;;;;48.83;33.80;;;16.00;89.40;;;;;;5004821;28;20207;-68
2022/10/18 02:50:01;;;;;;;41.97;31.03;;;15.90;89.30;;;;;;5003143;28;20218;-68
2022/10/18 02:52:28;;;;;;;46.83;34.10;;;15.90;89.20;;;;;;5001581;28;20245;-68
2022/10/18 02:54:55;;;;;;;43.83;31.20;;;15.90;89.10;;;;;;5002989;28;20207;-68
2022/10/18 02:57:22;;;;;;;46.23;33.07;;;15.90;89.20;;;;;;5002229;28;20209;-68
2022/10/18 02:59:49;;;;;;;46.13;31.77;;;15.90;89.20;;;;;;5002044;28;20212;-68
2022/10/18 03:02:16;;;;;;;44.27;31.87;;;15.90;89.10;;;;;;5007868;28;20759;-68
2022/10/18 03:04:43;;;;;;;43.80;32.10;;;15.90;89.00;;;;;;5002416;28;20730;-68
2022/10/18 03:07:10;;;;;;;47.47;33.27;;;15.90;89.20;;;;;;5001113;28;20204;-68
2022/10/18 03:09:37;;;;;;;46.23;32.53;;;15.90;89.20;;;;;;5003480;28;20203;-68
2022/10/18 03:12:04;;;;;;;53.10;33.80;;;15.90;89.20;;;;;;5002981;28;20204;-68
2022/10/18 03:14:32;;;;;;;49.30;35.83;;;15.90;89.30;;;;;;4999614;28;20214;-68
2022/10/18 03:16:59;;;;;;;55.57;37.90;;;15.90;89.40;;;;;;5004660;28;20255;-68
2022/10/18 03:19:25;;;;;;;51.50;34.77;;;15.80;89.50;;;;;;5002207;28;20282;-68
2022/10/18 03:21:52;;;;;;;50.17;35.80;;;15.80;89.80;;;;;;4998751;28;20200;-68
2022/10/18 03:24:20;;;;;;;52.77;36.30;;;15.80;89.90;;;;;;5007965;28;20675;-68
2022/10/18 03:26:47;;;;;;;54.37;38.53;;;15.80;89.90;;;;;;5006277;28;20204;-68
2022/10/18 03:29:14;;;;;;;54.37;38.10;;;15.80;90.00;;;;;;5012849;28;20200;-68
2022/10/18 03:31:41;;;;;;;51.37;37.70;;;15.80;90.00;;;;;;5006307;28;20204;-68
2022/10/18 03:34:08;;;;;;;60.93;40.70;;;15.80;90.10;;;;;;5006449;28;20215;-68
2022/10/18 03:36:35;;;;;;;61.97;41.83;;;15.80;90.10;;;;;;5005167;28;20215;-68
2022/10/18 03:39:02;;;;;;;60.53;38.67;;;15.80;90.20;;;;;;5006969;28;20204;-68
2022/10/18 03:41:29;;;;;;;57.63;40.00;;;15.80;90.40;;;;;;5009612;28;20540;-68
2022/10/18 03:43:56;;;;;;;55.83;38.87;;;15.80;90.40;;;;;;5005849;28;20239;-68
2022/10/18 03:46:23;;;;;;;60.13;38.60;;;15.80;90.50;;;;;;5003649;28;20199;-68
2022/10/18 03:48:50;;;;;;;58.13;38.37;;;15.80;90.50;;;;;;5007857;28;20216;-68
2022/10/18 03:51:17;;;;;;;62.67;38.03;;;15.80;90.50;;;;;;5003272;28;20236;-68
2022/10/18 03:53:44;;;;;;;62.33;40.43;;;15.80;90.50;;;;;;5006262;28;20596;-68
2022/10/18 03:56:11;;;;;;;63.53;42.27;;;15.70;90.50;;;;;;5006750;28;20204;-68
2022/10/18 03:58:38;;;;;;;69.67;42.33;;;15.70;90.50;;;;;;5004743;28;20204;-68
2022/10/18 04:01:05;;;;;;;60.40;42.23;;;15.80;90.60;;;;;;5005747;28;20204;-68
2022/10/18 04:03:32;;;;;;;60.60;40.37;;;15.70;90.60;;;;;;5001315;28;20213;-68
2022/10/18 04:06:02;;;;;;;57.83;38.83;;;15.70;90.70;;;;;;5005589;28;20529;-68
2022/10/18 04:08:29;;;;;;;64.80;39.47;;;15.80;90.70;;;;;;5005330;28;20200;-68
2022/10/18 04:10:56;;;;;;;61.50;39.67;;;15.80;90.60;;;;;;5007279;28;20652;-68
2022/10/18 04:13:23;;;;;;;53.70;38.53;;;15.70;90.60;;;;;;5006352;28;20211;-68
2022/10/18 04:15:50;;;;;;;55.60;38.27;;;15.70;90.50;;;;;;5003605;28;20270;-68
2022/10/18 04:18:17;;;;;;;57.67;39.27;;;15.70;90.50;;;;;;5005321;28;20586;-68
2022/10/18 04:20:44;;;;;;;63.57;41.57;;;15.70;90.50;;;;;;5004872;28;20247;-68
2022/10/18 04:23:11;;;;;;;65.33;39.63;;;15.70;90.50;;;;;;5005508;28;20196;-68
2022/10/18 04:25:38;;;;;;;58.07;40.37;;;15.70;90.50;;;;;;5006681;28;20207;-68
2022/10/18 04:28:05;;;;;;;56.70;38.87;;;15.70;90.60;;;;;;5003732;28;20518;-68
2022/10/18 04:30:32;;;;;;;57.67;38.77;;;15.60;90.60;;;;;;5004364;28;20203;-68
2022/10/18 04:32:59;;;;;;;59.57;39.23;;;15.70;90.90;;;;;;5005118;28;20542;-68
2022/10/18 04:35:27;;;;;;;60.03;40.63;;;15.60;90.70;;;;;;5000286;28;20219;-68
2022/10/18 04:37:54;;;;;;;53.67;36.47;;;15.60;90.70;;;;;;5005121;28;20270;-68
2022/10/18 04:40:21;;;;;;;57.07;37.23;;;15.60;91.10;;;;;;5003374;28;20625;-68
2022/10/18 04:42:48;;;;;;;57.37;39.63;;;15.60;90.80;;;;;;5004684;28;20209;-68
2022/10/18 04:45:15;;;;;;;59.00;38.90;;;15.60;90.70;;;;;;5004517;28;20227;-68
2022/10/18 04:47:42;;;;;;;58.67;37.40;;;15.60;90.70;;;;;;5005681;28;20201;-68
2022/10/18 04:50:09;;;;;;;63.03;39.13;;;15.60;90.70;;;;;;5003515;28;20583;-68
2022/10/18 04:52:36;;;;;;;57.10;39.07;;;15.60;90.70;;;;;;5002812;28;20513;-68
2022/10/18 04:55:03;;;;;;;60.43;39.83;;;15.60;90.80;;;;;;5006733;28;20211;-68
2022/10/18 04:57:30;;;;;;;56.20;39.07;;;15.60;90.80;;;;;;5005331;28;20200;-68
2022/10/18 04:59:58;;;;;;;57.83;39.17;;;15.60;90.80;;;;;;5004554;28;20202;-68
2022/10/18 05:02:25;;;;;;;54.60;37.87;;;15.50;90.70;;;;;;5008583;28;20715;-68
2022/10/18 05:04:52;;;;;;;60.37;41.63;;;15.60;90.80;;;;;;5006005;28;20224;-68
2022/10/18 05:07:19;;;;;;;59.47;40.43;;;15.60;90.70;;;;;;5002876;28;20258;-68
2022/10/18 05:09:46;;;;;;;54.67;37.47;;;15.50;90.80;;;;;;5007350;28;20203;-68
2022/10/18 05:12:13;;;;;;;58.63;40.60;;;15.50;90.80;;;;;;5001128;28;20212;-68
2022/10/18 05:14:40;;;;;;;56.47;39.37;;;15.50;90.80;;;;;;5002693;28;20217;-68
2022/10/18 05:17:07;;;;;;;59.93;39.20;;;15.50;90.80;;;;;;5003501;28;20706;-68
2022/10/18 05:19:34;;;;;;;59.50;39.87;;;15.50;90.90;;;;;;5004378;28;20235;-68
2022/10/18 05:22:01;;;;;;;59.30;38.93;;;15.40;90.90;;;;;;5008119;28;20529;-68
2022/10/18 05:24:28;;;;;;;64.73;41.23;;;15.50;91.00;;;;;;5006224;28;20250;-68
2022/10/18 05:26:55;;;;;;;57.27;38.67;;;15.40;91.00;;;;;;5002055;28;20204;-68
2022/10/18 05:29:22;;;;;;;62.10;39.17;;;15.40;91.00;;;;;;5005488;28;20207;-68
2022/10/18 05:31:50;;;;;;;57.37;38.43;;;15.40;91.00;;;;;;5004212;28;20716;-68
2022/10/18 05:34:17;;;;;;;61.67;38.63;;;15.40;91.10;;;;;;5004108;28;20203;-68
2022/10/18 05:36:44;;;;;;;52.17;38.03;;;15.40;91.10;;;;;;5000784;28;20208;-69
2022/10/18 05:39:11;;;;;;;50.83;36.10;;;15.40;91.10;;;;;;5005647;28;20266;-68
2022/10/18 05:41:38;;;;;;;49.23;35.93;;;15.40;91.20;;;;;;5005105;28;20196;-68
2022/10/18 05:44:05;;;;;;;48.03;35.23;;;15.40;91.20;;;;;;5000620;28;20224;-68
2022/10/18 05:46:32;;;;;;;48.23;34.40;;;15.40;91.20;;;;;;5005368;28;20265;-68
2022/10/18 05:49:00;;;;;;;48.37;32.23;;;15.40;91.20;;;;;;4998992;28;20192;-68
2022/10/18 05:51:26;;;;;;;50.10;32.77;;;15.50;91.30;;;;;;5003424;28;20196;-68
2022/10/18 05:53:54;;;;;;;40.00;29.93;;;15.40;91.20;;;;;;5007812;28;20191;-68
2022/10/18 05:56:21;;;;;;;45.17;31.40;;;15.50;91.20;;;;;;4996368;28;20196;-68
2022/10/18 05:58:51;;;;;;;44.10;30.27;;;15.50;91.30;;;;;;5001291;28;20207;-68
2022/10/18 06:01:18;;;;;;;42.70;30.10;;;15.40;91.30;;;;;;5001356;28;20235;-68
2022/10/18 06:03:46;;;;;;;45.43;28.13;;;15.50;91.30;;;;;;5008408;28;20200;-68
2022/10/18 06:06:14;;;;;;;43.07;30.47;;;15.50;91.30;;;;;;5001814;28;20234;-68
2022/10/18 06:08:42;;;;;;;37.90;29.03;;;15.50;91.20;;;;;;5007288;28;20200;-68
2022/10/18 06:11:13;;;;;;;38.40;28.37;;;15.50;91.20;;;;;;5003109;28;20204;-68
2022/10/18 06:13:42;;;;;;;45.07;28.00;;;15.60;91.30;;;;;;5002616;28;20513;-68
2022/10/18 06:16:10;;;;;;;39.30;27.93;;;15.60;91.20;;;;;;5001247;28;20695;-68
2022/10/18 06:18:37;;;;;;;37.87;27.20;;;15.70;91.30;;;;;;5002557;28;20211;-68
2022/10/18 06:21:05;;;;;;;38.30;28.20;;;15.70;91.60;;;;;;5000124;28;20242;-68
2022/10/18 06:23:32;;;;;;;36.17;28.33;;;15.80;91.20;;;;;;5001631;28;20645;-68
2022/10/18 06:26:01;;;;;;;36.57;27.57;;;15.80;91.10;;;;;;5004589;28;20381;-68
2022/10/18 06:28:29;;;;;;;46.70;27.73;;;15.90;91.10;;;;;;5002824;28;20201;-68
2022/10/18 06:30:57;;;;;;;44.67;27.90;;;16.00;91.10;;;;;;5002693;28;20219;-68
2022/10/18 06:33:24;;;;;;;39.13;26.17;;;16.00;91.00;;;;;;5003092;28;20207;-68
2022/10/18 06:35:59;;;;;;;37.93;27.43;;;16.10;91.00;;;;;;5002217;28;20211;-68
2022/10/18 06:38:28;;;;;;;36.53;27.07;;;16.10;91.00;;;;;;5005380;28;20257;-68
2022/10/18 06:40:56;;;;;;;41.23;27.70;;;16.20;90.90;;;;;;5001321;28;20575;-68
2022/10/18 06:43:23;;;;;;;38.77;26.13;;;16.30;90.90;;;;;;5002206;28;20208;-68
2022/10/18 06:45:51;;;;;;;42.50;27.93;;;16.30;90.80;;;;;;5001602;28;20549;-68
2022/10/18 06:48:20;;;;;;;45.90;29.37;;;16.40;90.80;;;;;;5004730;28;20196;-68
2022/10/18 06:50:55;;;;;;;41.80;28.73;;;16.50;90.80;;;;;;5000702;28;20206;-68
2022/10/18 06:53:31;;;;;;;44.23;28.63;;;16.60;90.80;;;;;;5003455;28;20598;-68
2022/10/18 06:56:00;;;;;;;41.47;29.73;;;16.70;90.70;;;;;;5004314;28;20254;-69
2022/10/18 06:58:28;;;;;;;38.80;27.93;;;16.80;90.50;;;;;;5001538;28;20263;-68
2022/10/18 07:00:55;;;;;;;42.27;29.57;;;16.90;90.70;;;;;;5003431;28;20204;-68
2022/10/18 07:03:22;;;;;;;40.17;30.53;;;17.10;90.40;;;;;;5006767;28;20711;-68
2022/10/18 07:05:50;;;;;;;41.67;30.80;;;17.30;90.20;;;;;;5005224;28;20209;-68
2022/10/18 07:08:17;;;;;;;53.57;33.23;;;17.40;89.90;;;;;;5000917;28;20237;-69
2022/10/18 07:10:51;;;;;;;47.17;31.80;;;17.60;89.40;;;;;;5004771;28;20261;-69
2022/10/18 07:13:19;;;;;;;47.77;31.53;;;17.80;88.90;;;;;;5001854;28;20231;-69
2022/10/18 07:16:05;;;;;;;51.33;32.17;;;17.90;88.50;;;;;;5000110;28;20205;-69
2022/10/18 07:18:33;;;;;;;48.83;34.37;;;18.10;88.20;;;;;;5001229;28;20681;-69
2022/10/18 07:21:05;;;;;;;52.63;35.63;;;18.20;87.80;;;;;;4998800;28;20243;-69
2022/10/18 07:23:33;;;;;;;58.87;35.80;;;18.30;87.40;;;;;;5002928;28;20333;-69
2022/10/18 07:26:02;;;;;;;54.87;36.73;;;18.40;87.10;;;;;;5001407;28;20295;-69
2022/10/18 07:28:29;;;;;;;54.70;36.83;;;18.50;86.90;;;;;;5003873;28;20268;-69
2022/10/18 07:31:02;;;;;;;52.03;37.03;;;18.60;86.50;;;;;;4999578;28;20214;-69
2022/10/18 07:33:33;;;;;;;56.23;37.97;;;18.70;86.10;;;;;;5004615;28;20203;-70
2022/10/18 07:36:02;;;;;;;58.40;37.27;;;18.80;85.70;;;;;;5006387;28;20209;-70
2022/10/18 07:38:29;;;;;;;51.30;36.03;;;18.90;85.50;;;;;;4999143;28;20245;-70
2022/10/18 07:41:00;;;;;;;55.63;36.60;;;19.00;85.10;;;;;;4997094;28;20635;-70
2022/10/18 07:43:28;;;;;;;52.03;35.23;;;19.10;84.70;;;;;;5000756;28;20277;-70
2022/10/18 07:45:57;;;;;;;51.80;36.20;;;19.20;84.30;;;;;;5002479;28;20227;-70
2022/10/18 07:48:25;;;;;;;57.70;34.93;;;19.30;84.00;;;;;;5000704;28;20627;-69
2022/10/18 07:50:52;;;;;;;58.33;36.17;;;19.40;84.30;;;;;;5003934;28;20209;-69
2022/10/18 07:53:19;;;;;;;63.83;36.07;;;19.50;83.30;;;;;;4998033;28;20574;-70
2022/10/18 07:55:46;;;;;;;56.00;35.80;;;19.60;83.00;;;;;;5000668;28;20259;-70
2022/10/18 07:58:14;;;;;;;56.87;37.73;;;19.70;82.90;;;;;;5003974;28;20527;-70
2022/10/18 08:00:41;;;;;;;51.17;35.53;;;19.80;82.60;;;;;;5003351;28;20218;-70
2022/10/18 08:03:08;;;;;;;54.33;36.97;;;19.90;82.20;;;;;;5001928;28;20706;-70
2022/10/18 08:05:35;;;;;;;51.10;36.43;;;20.00;81.80;;;;;;5004929;28;20255;-70
2022/10/18 08:08:02;;;;;;;53.53;38.77;;;20.10;81.30;;;;;;5002299;28;20310;-66
2022/10/18 08:10:34;;;;;;;59.83;42.07;;;20.30;81.00;;;;;;5006269;28;20290;-69
2022/10/18 08:13:01;;;;;;;69.10;40.00;;;20.30;80.70;;;;;;5005476;28;20211;-67
2022/10/18 08:15:28;;;;;;;61.57;40.33;;;20.50;80.40;;;;;;5001527;28;20211;-71
2022/10/18 08:17:55;;;;;;;60.27;40.20;;;20.60;80.00;;;;;;5002127;28;20208;-65
2022/10/18 08:20:22;;;;;;;62.20;40.20;;;20.70;79.70;;;;;;5001576;28;20306;-66
2022/10/18 08:22:57;;;;;;;62.87;42.53;;;20.80;79.60;;;;;;5006477;28;20283;-69
2022/10/18 08:25:27;;;;;;;61.03;41.53;;;20.80;79.10;;;;;;5003146;28;20279;-66
2022/10/18 08:27:54;;;;;;;56.83;41.13;;;21.00;78.80;;;;;;5005345;28;20633;-71
2022/10/18 08:30:22;;;;;;;65.13;42.47;;;21.10;78.50;;;;;;5003866;28;20633;-71
2022/10/18 08:32:49;;;;;;;60.97;42.17;;;21.20;77.80;;;;;;5005893;28;20204;-70
2022/10/18 08:35:16;;;;;;;58.83;42.07;;;21.30;77.70;;;;;;5010955;28;20227;-73
2022/10/18 08:37:44;;;;;;;77.00;44.53;;;21.30;77.40;;;;;;5003836;28;20634;-69
2022/10/18 08:40:15;;;;;;;60.33;42.30;;;21.40;77.10;;;;;;5005642;28;20607;-71
2022/10/18 08:43:00;;;;;;;61.07;43.90;;;21.50;76.80;;;;;;5004254;28;20196;-68
2022/10/18 08:45:29;;;;;;;63.47;42.70;;;21.60;76.70;;;;;;5004018;28;20711;-69
2022/10/18 08:48:20;;;;;;;60.17;42.60;;;21.80;76.50;;;;;;5003017;28;20278;-70
2022/10/18 08:50:49;;;;;;;65.63;45.03;;;21.90;76.30;;;;;;5003414;28;20696;-70
2022/10/18 08:53:27;;;;;;;67.17;45.93;;;22.00;76.30;;;;;;5001736;28;20670;-70
2022/10/18 08:56:02;;;;;;;74.70;46.20;;;22.10;75.80;;;;;;5002886;28;20583;-71
2022/10/18 08:58:32;;;;;;;72.67;46.37;;;22.20;75.30;;;;;;5004687;28;20265;-70
2022/10/18 09:01:23;;;;;;;69.27;47.20;;;22.30;75.00;;;;;;5003353;28;20513;-70
2022/10/18 09:04:08;;;;;;;66.53;48.00;;;22.40;74.60;;;;;;5005270;28;20525;-70
2022/10/18 09:07:05;;;;;;;66.17;46.67;;;22.50;74.30;;;;;;5004985;28;20277;-70
2022/10/18 09:09:51;;;;;;;73.03;47.97;;;22.60;74.10;;;;;;5002349;28;20585;-70
2022/10/18 09:12:30;;;;;;;73.73;50.03;;;22.70;73.50;;;;;;5003031;28;20231;-70
2022/10/18 09:15:09;;;;;;;73.53;49.30;;;22.80;73.10;;;;;;5007870;28;20200;-72
2022/10/18 09:17:51;;;;;;;76.53;50.40;;;22.90;72.70;;;;;;5003595;28;20208;-68
2022/10/18 09:20:47;;;;;;;74.10;49.47;;;23.00;72.40;;;;;;5005390;28;20244;-69
2022/10/18 09:23:21;;;;;;;68.70;48.00;;;23.00;72.10;;;;;;5003315;28;20593;-70
2022/10/18 09:26:06;;;;;;;67.67;46.67;;;23.10;72.30;;;;;;5000314;28;20235;-70
2022/10/18 09:28:33;;;;;;;89.20;51.67;;;23.20;72.30;;;;;;5006542;28;20531;-68
2022/10/18 09:31:15;;;;;;;82.00;51.17;;;23.30;71.60;;;;;;5003381;28;20303;-68
2022/10/18 09:33:49;;;;;;;79.17;52.47;;;23.40;71.10;;;;;;5008572;28;20212;-68
2022/10/18 09:36:34;;;;;;;81.83;51.87;;;23.40;70.90;;;;;;5001807;28;20213;-67
2022/10/18 09:39:17;;;;;;;75.93;50.13;;;23.50;70.70;;;;;;5036157;28;20204;-66
2022/10/18 09:41:47;;;;;;;86.83;53.73;;;23.50;70.40;;;;;;5003902;28;20572;-68
2022/10/18 09:44:42;;;;;;;80.47;53.77;;;23.60;70.20;;;;;;4999068;28;20595;-69
2022/10/18 09:47:16;;;;;;;84.87;55.57;;;23.70;70.10;;;;;;5002950;28;20208;-71
2022/10/18 09:49:47;;;;;;;88.23;56.73;;;23.70;69.70;;;;;;5005634;28;20204;-71
2022/10/18 09:52:38;;;;;;;89.93;57.90;;;23.80;69.80;;;;;;5001285;28;20262;-72
2022/10/18 09:55:16;;;;;;;86.47;57.83;;;23.90;69.90;;;;;;5000478;28;20213;-72
2022/10/18 09:57:55;;;;;;;88.00;57.83;;;24.00;69.90;;;;;;5009943;28;20205;-71
2022/10/18 10:00:28;;;;;;;89.33;60.60;;;24.10;69.40;;;;;;5002662;28;20261;-72
2022/10/18 10:02:55;;;;;;;90.27;61.17;;;24.20;69.40;;;;;;5007428;28;20205;-68
2022/10/18 10:05:22;;;;;;;95.80;60.97;;;24.30;69.10;;;;;;5003104;28;20727;-68
2022/10/18 10:07:55;;;;;;;91.83;60.60;;;24.30;68.30;;;;;;5003485;28;20216;-67
2022/10/18 10:10:27;;;;;;;95.57;61.17;;;24.40;68.40;;;;;;5002486;28;20197;-71
2022/10/18 10:13:24;;;;;;;96.53;60.37;;;24.40;67.90;;;;;;5007268;28;20204;-67
2022/10/18 10:16:00;;;;;;;96.93;63.00;;;24.50;67.60;;;;;;5001987;28;20203;-69
2022/10/18 10:18:31;;;;;;;100.90;63.70;;;24.60;67.70;;;;;;5004730;28;20211;-69
2022/10/18 10:21:01;;;;;;;90.47;59.87;;;24.70;67.40;;;;;;5002618;28;20671;-71
2022/10/18 10:23:37;;;;;;;94.30;60.53;;;24.70;67.20;;;;;;5001462;28;20211;-70
2022/10/18 10:26:20;;;;;;;93.20;60.57;;;24.80;66.70;;;;;;4999456;28;20224;-68
2022/10/18 10:28:48;;;;;;;89.17;58.33;;;24.90;66.40;;;;;;5002359;28;20232;-68
2022/10/18 10:31:24;;;;;;;93.00;58.93;;;25.00;66.50;;;;;;5003462;28;20196;-68
2022/10/18 10:34:05;;;;;;;88.00;58.63;;;25.10;66.60;;;;;;4999358;28;20573;-69
2022/10/18 10:36:33;;;;;;;88.30;59.33;;;25.10;65.10;;;;;;5004234;28;20207;-70
2022/10/18 10:39:10;;;;;;;88.10;59.13;;;25.20;65.00;;;;;;5000022;28;20196;-68
2022/10/18 10:41:39;;;;;;;89.27;58.77;;;25.20;64.90;;;;;;5004205;28;20639;-71
2022/10/18 10:44:16;;;;;;;82.33;56.20;;;25.10;64.20;;;;;;5003159;28;20200;-69
2022/10/18 10:46:44;;;;;;;81.70;55.33;;;25.10;64.40;;;;;;5017233;28;20278;-68
2022/10/18 10:49:26;;;;;;;77.63;54.93;;;25.10;65.10;;;;;;5002861;28;20201;-70
2022/10/18 10:52:15;;;;;;;82.47;54.83;;;25.20;65.00;;;;;;5000392;28;20211;-69
2022/10/18 10:54:56;;;;;;;78.83;52.90;;;25.20;64.20;;;;;;5002012;28;20258;-68
2022/10/18 10:57:37;;;;;;;79.10;55.60;;;25.30;64.90;;;;;;5003368;28;20237;-68
2022/10/18 11:00:05;;;;;;;77.37;53.77;;;25.40;64.20;;;;;;5002968;28;20190;-70
2022/10/18 11:02:33;;;;;;;87.40;55.47;;;25.40;63.80;;;;;;5004478;28;20196;-65
2022/10/18 11:05:28;;;;;;;75.60;51.47;;;25.50;64.00;;;;;;5003134;28;20203;-68
2022/10/18 11:08:01;;;;;;;70.80;49.37;;;25.60;63.20;;;;;;4998918;28;20203;-65
2022/10/18 11:10:33;;;;;;;74.97;51.60;;;25.60;62.70;;;;;;5002883;28;20200;-68
2022/10/18 11:13:22;;;;;;;70.53;52.27;;;25.60;62.70;;;;;;5009414;28;20213;-66
2022/10/18 11:15:56;;;;;;;71.17;49.40;;;25.50;62.40;;;;;;5008311;28;20210;-67
2022/10/18 11:18:26;;;;;;;80.07;50.03;;;25.50;63.20;;;;;;5002167;28;20756;-74
2022/10/18 11:21:11;;;;;;;70.40;49.10;;;25.50;62.80;;;;;;5005308;28;20252;-69
2022/10/18 11:23:41;;;;;;;64.27;49.07;;;25.60;62.60;;;;;;5002172;28;20645;-70
2022/10/18 11:26:11;;;;;;;71.23;45.93;;;25.60;62.10;;;;;;5003230;28;20291;-70
2022/10/18 11:28:44;;;;;;;67.63;48.00;;;25.60;62.10;;;;;;5004062;28;20195;-70
2022/10/18 11:31:17;;;;;;;68.60;47.27;;;25.70;62.50;;;;;;5006715;28;20706;-71
2022/10/18 11:33:59;;;;;;;69.63;46.00;;;25.80;62.60;;;;;;5008707;28;20212;-70
2022/10/18 11:36:51;;;;;;;64.30;46.03;;;25.90;62.20;;;;;;5004533;28;20217;-71
2022/10/18 11:39:43;;;;;;;58.53;45.87;;;26.00;61.80;;;;;;5001876;28;20211;-70
2022/10/18 11:42:31;;;;;;;64.10;46.37;;;26.20;61.90;;;;;;5001913;28;20275;-69
2022/10/18 11:45:10;;;;;;;57.47;40.93;;;26.30;61.60;;;;;;5003794;28;20515;-68
2022/10/18 11:47:53;;;;;;;62.47;45.53;;;26.40;61.30;;;;;;5002267;28;20233;-67
2022/10/18 11:50:25;;;;;;;61.67;44.33;;;26.50;60.00;;;;;;5008836;28;20631;-71
2022/10/18 11:53:36;;;;;;;64.87;43.53;;;26.50;58.80;;;;;;5008561;28;20195;-70
2022/10/18 11:56:20;;;;;;;61.00;44.43;;;26.40;59.60;;;;;;5004620;28;20206;-70
2022/10/18 11:59:18;;;;;;;65.03;42.67;;;26.50;59.80;;;;;;5011375;28;20200;-70
2022/10/18 12:02:02;;;;;;;55.27;39.63;;;26.50;59.40;;;;;;5007989;28;20343;-71
2022/10/18 12:04:41;;;;;;;57.30;38.30;;;26.50;58.70;;;;;;5006273;28;21183;-71
2022/10/18 12:07:37;;;;;;;56.53;38.73;;;26.60;59.00;;;;;;5005834;28;20289;-71
2022/10/18 12:10:08;;;;;;;55.70;40.60;;;26.60;58.90;;;;;;5001116;28;20203;-71
2022/10/18 12:12:42;;;;;;;58.80;42.07;;;26.60;58.40;;;;;;5005113;28;20200;-71
2022/10/18 12:15:18;;;;;;;53.53;39.43;;;26.60;58.10;;;;;;5002708;28;20258;-71
2022/10/18 12:17:58;;;;;;;58.53;41.17;;;26.60;58.50;;;;;;5005491;28;20239;-71
2022/10/18 12:20:36;;;;;;;51.97;38.23;;;26.70;58.80;;;;;;5008147;28;20580;-71
2022/10/18 12:23:16;;;;;;;61.87;39.57;;;26.70;58.60;;;;;;5004890;28;20211;-71
2022/10/18 12:25:51;;;;;;;48.17;34.90;;;26.70;58.70;;;;;;5000500;28;20220;-71
2022/10/18 12:28:46;;;;;;;45.20;34.17;;;26.70;58.90;;;;;;5004851;28;20700;-71
2022/10/18 12:31:22;;;;;;;49.87;37.33;;;26.70;58.10;;;;;;5018568;28;20203;-71
2022/10/18 12:33:57;;;;;;;47.17;35.03;;;26.80;56.70;;;;;;5006021;28;20199;-71
2022/10/18 12:36:39;;;;;;;48.87;32.37;;;26.70;56.20;;;;;;5004454;28;20643;-71
2022/10/18 12:39:15;;;;;;;48.93;36.20;;;26.70;57.00;;;;;;5004435;28;20199;-70
2022/10/18 12:41:46;;;;;;;52.77;37.47;;;26.60;57.00;;;;;;5005890;28;20698;-70
2022/10/18 12:44:21;;;;;;;44.63;33.80;;;26.60;57.20;;;;;;5009367;28;20666;-71
2022/10/18 12:46:53;;;;;;;45.57;35.17;;;26.60;57.40;;;;;;5002859;28;20208;-71
2022/10/18 12:49:37;;;;;;;46.33;33.20;;;26.60;57.60;;;;;;5006898;28;20206;-70
2022/10/18 12:52:27;;;;;;;43.67;29.67;;;26.60;57.60;;;;;;5004846;28;20247;-71